Latest Weather Observations for Melbourne (Olympic Park)

IDV60801

Issued at 11:02 am EDT Saturday 21 January 2017 (issued every 30 minutes, with the page automatically refreshed every 10 minutes)

About weather observations | Map of weather stations | Latest weather observations for VIC | Other Formats
Station Details ID: 086338 Name: MELBOURNE (OLYMPIC PARK) Lat: -37.83 Lon: 144.98 Height: 7.53 m
Data from the previous 72 hours. | See also: Recent months at Melbourne (Olympic Park)
Date/Time
EDT
Temp
°C
App
Temp
°C
Dew
Point
°C
Rel
Hum
%
Delta-T
°C
Wind Press
QNH
hPa
Press
MSL
hPa
Rain since
9am
mm
Dir  Spd
km/h
Gust
km/h
Spd
kts
Gust
kts
21/11:00am 18.7 16.4 10.5 59 4.4 SSW 13 24 7 13 1015.6 1015.6 0.0
21/10:30am 18.4 16.1 10.5 60 4.2 S 13 30 7 16 1015.6 1015.6 0.0
21/10:00am 17.5 16.0 11.8 69 3.1 SSW 11 20 6 11 1015.3 1015.3 0.0
21/09:30am 16.4 15.1 11.3 72 2.7 SW 9 20 5 11 1015.1 1015.1 0.0
21/09:00am 16.2 15.3 11.2 72 2.7 WSW 7 13 4 7 1014.9 1014.9 0.6
21/08:30am 15.9 14.7 10.4 70 2.9 SW 7 13 4 7 1014.5 1014.5 0.6
21/08:00am 15.7 14.4 10.0 69 3.0 SW 7 15 4 8 1014.0 1014.0 0.6
21/07:30am 15.8 14.7 9.9 68 3.1 NNE 6 7 3 4 1013.5 1013.5 0.6
21/07:00am 15.4 14.9 9.3 67 3.1 NNE 2 6 1 3 1013.1 1013.1 0.6
21/06:30am 15.4 15.3 9.5 68 3.0 CALM 0 6 0 3 1012.6 1012.6 0.6
21/06:00am 15.6 14.2 8.8 64 3.5 E 6 9 3 5 1012.4 1012.4 0.6
21/05:30am 16.1 14.6 8.6 61 3.8 SSE 6 13 3 7 1012.0 1012.0 0.6
21/05:00am 16.1 14.4 8.3 60 4.0 S 7 19 4 10 1011.5 1011.5 0.6
21/04:30am 15.9 14.0 9.1 64 3.5 SSE 9 17 5 9 1011.3 1011.3 0.6
21/04:00am 15.9 13.7 7.9 59 4.0 SSE 9 17 5 9 1011.0 1011.0 0.6
21/03:30am 15.9 13.0 8.2 60 3.9 S 13 24 7 13 1011.0 1011.0 0.6
21/03:00am 15.9 13.9 8.6 62 3.7 SSW 9 20 5 11 1010.8 1010.8 0.6
21/02:30am 16.1 13.2 8.1 59 4.0 SSE 13 22 7 12 1010.6 1010.6 0.6
21/02:00am 16.2 12.9 7.9 58 4.2 S 15 24 8 13 1010.4 1010.4 0.6
21/01:30am 16.2 13.7 8.2 59 4.0 S 11 20 6 11 1010.2 1010.2 0.6
21/01:00am 16.3 13.4 8.3 59 4.1 S 13 30 7 16 1010.0 1010.0 0.6
21/12:30am 16.3 13.4 8.0 58 4.2 S 13 24 7 13 1009.9 1009.9 0.6
21/12:00am 16.4 13.0 9.3 63 3.7 S 17 30 9 16 1009.7 1009.7 0.6
 
Date/Time
EDT
Temp
°C
App
Temp
°C
Dew
Point
°C
Rel
Hum
%
Delta-T
°C
Wind Press
QNH
hPa
Press
MSL
hPa
Rain since
9am
mm
Dir  Spd
km/h
Gust
km/h
Spd
kts
Gust
kts
20/11:30pm 16.4 13.0 9.3 63 3.7 S 17 30 9 16 1009.5 1009.5 0.6
20/11:00pm 16.5 13.5 9.2 62 3.8 SSW 15 26 8 14 1009.3 1009.3 0.6
20/10:30pm 16.7 14.3 9.9 64 3.6 S 13 24 7 13 1009.2 1009.2 0.6
20/10:00pm 16.6 13.4 10.0 65 3.5 S 17 28 9 15 1009.2 1009.2 0.6
20/09:30pm 16.6 13.5 10.2 66 3.4 S 17 30 9 16 1008.8 1008.8 0.6
20/09:00pm 16.7 13.7 10.8 68 3.2 SSW 17 30 9 16 1008.5 1008.5 0.6
20/08:30pm 16.9 13.2 10.1 64 3.6 S 20 41 11 22 1008.3 1008.3 0.6
20/08:00pm 17.0 13.6 10.6 66 3.4 S 19 41 10 22 1007.8 1007.8 0.6
20/07:30pm 17.0 14.0 10.8 67 3.3 SSW 17 37 9 20 1007.2 1007.2 0.6
20/07:00pm 17.5 12.8 9.4 59 4.2 SSW 24 37 13 20 1006.5 1006.5 0.6
20/06:30pm 17.5 14.3 11.1 66 3.5 SSW 19 35 10 19 1005.8 1005.8 0.6
20/06:00pm 18.1 14.1 10.5 61 4.1 S 22 46 12 25 1005.4 1005.4 0.6
20/05:30pm 18.7 14.3 10.3 58 4.5 SSW 24 50 13 27 1004.9 1004.9 0.6
20/05:00pm 19.2 15.9 11.7 62 4.2 SSW 20 41 11 22 1004.2 1004.2 0.6
20/04:30pm 19.4 16.5 12.4 64 3.9 SSW 19 37 10 20 1003.8 1003.8 0.6
20/04:00pm 19.2 17.1 12.5 65 3.8 SSW 15 39 8 21 1003.2 1003.2 0.6
20/03:30pm 19.1 15.1 11.7 62 4.1 S 24 52 13 28 1002.6 1002.6 0.6
20/03:00pm 20.5 17.3 11.2 55 5.1 SW 19 39 10 21 1002.0 1002.0 0.6
20/02:30pm 19.9 16.6 10.9 56 4.9 SSW 19 44 10 24 1001.8 1001.8 0.6
20/02:00pm 19.9 17.1 12.7 63 4.1 SSW 19 37 10 20 1001.5 1001.5 0.6
20/01:30pm 19.4 18.2 14.0 71 3.1 SSW 13 24 7 13 1001.2 1001.2 0.6
20/01:00pm 18.2 16.7 14.1 77 2.4 SSW 15 30 8 16 1000.9 1000.9 0.6
20/12:30pm 17.4 15.3 13.7 79 2.1 SSW 17 32 9 17 1000.3 1000.3 0.6
20/12:00pm 17.8 16.3 14.1 79 2.1 SSW 15 26 8 14 999.3 999.3 0.6
20/11:30am 19.0 17.1 14.1 73 2.8 W 17 32 9 17 998.6 998.6 0.6
20/11:00am 18.8 17.5 14.9 78 2.3 W 15 28 8 15 997.7 997.7 0.6
20/10:30am 18.5 18.0 15.0 80 2.0 W 11 28 6 15 997.1 997.1 0.6
20/10:00am 17.6 16.3 15.9 90 1.0 WSW 17 35 9 19 996.7 996.7 0.6
20/09:30am 18.5 19.7 17.3 93 0.7 WSW 7 13 4 7 996.1 996.1 0.4
20/09:00am 18.7 19.0 16.9 89 1.1 NW 11 24 6 13 995.2 995.2 22.6
20/08:30am 18.1 17.7 17.1 94 0.6 NNW 15 26 8 14 994.6 994.6 22.4
20/08:00am 18.1 16.9 17.0 93 0.7 NNW 19 35 10 19 994.2 994.2 21.2
20/07:30am 17.5 17.2 16.5 94 0.6 NNW 13 24 7 13 992.7 992.7 19.0
20/07:00am 17.0 16.2 16.2 95 0.5 N 15 22 8 12 992.0 992.0 17.8
20/06:30am 16.7 15.5 16.2 97 0.3 NNE 17 28 9 15 992.4 992.4 17.4
20/06:00am 16.5 14.9 16.5 100 0.0 NNE 20 30 11 16 993.3 993.3 17.4
20/05:35am 16.8 16.1 16.5 98 0.2 NNE 15 24 8 13 994.6 994.6 17.2
20/05:30am 16.9 17.0 16.6 98 0.2 NNE 11 17 6 9 995.2 995.2 17.0
20/05:17am 16.5 16.7 15.7 95 0.5 N 9 13 5 7 996.2 996.2 16.0
20/05:00am 16.6 17.6 16.3 98 0.2 W 6 11 3 6 997.8 997.8 14.8
20/04:56am 16.7 18.5 16.4 98 0.2 WSW 2 9 1 5 997.8 997.8 14.6
20/04:30am 17.0 18.4 16.5 97 0.3 SSE 4 9 2 5 998.2 998.2 13.2
20/04:00am 17.6 19.7 17.1 97 0.3 SSE 2 9 1 5 999.2 999.2 10.0
20/03:45am 17.5 19.4 16.7 95 0.5 W 2 7 1 4 1000.0 1000.0 7.8
20/03:30am 17.5 19.0 16.7 95 0.5 W 4 9 2 5 1000.3 1000.3 7.0
20/03:29am 17.5 19.0 16.7 95 0.5 W 4 9 2 5 1000.4 1000.4 7.0
20/03:00am 17.9 18.7 17.3 96 0.4 SSW 9 17 5 9 1000.9 1000.9 5.0
20/02:30am 18.8 18.6 17.5 92 0.8 SW 15 28 8 15 1001.8 1001.8 1.4
20/02:27am 18.9 19.1 17.6 92 0.8 SW 13 28 7 15 1001.6 1001.6 1.2
20/02:00am 19.6 18.9 14.2 71 3.1 WSW 11 20 6 11 1000.0 1000.0 0.0
20/01:59am 19.6 18.9 14.2 71 3.1 WSW 11 20 6 11 999.9 999.9 0.0
20/01:30am 20.0 19.9 13.9 68 3.5 NW 7 11 4 6 997.9 997.9 0.0
20/01:00am 19.1 20.9 15.4 79 2.2 CALM 0 6 0 3 997.5 997.5 0.0
20/12:30am 19.3 21.0 15.2 77 2.4 CALM 0 0 0 0 998.1 998.1 0.0
20/12:00am 19.5 20.9 14.5 73 2.9 CALM 0 6 0 3 998.8 998.8 0.0
 
Date/Time
EDT
Temp
°C
App
Temp
°C
Dew
Point
°C
Rel
Hum
%
Delta-T
°C
Wind Press
QNH
hPa
Press
MSL
hPa
Rain since
9am
mm
Dir  Spd
km/h
Gust
km/h
Spd
kts
Gust
kts
19/11:30pm 19.8 20.5 14.6 72 3.0 WSW 4 11 2 6 999.6 999.6 0.0
19/11:00pm 19.6 21.3 15.3 76 2.5 CALM 0 0 0 0 999.6 999.6 0.0
19/10:30pm 20.0 21.6 15.0 73 2.9 CALM 0 0 0 0 1000.8 1000.8 0.0
19/10:00pm 20.6 22.0 14.5 68 3.6 CALM 0 7 0 4 1001.8 1001.8 0.0
19/09:30pm 20.8 21.8 14.2 66 3.8 SW 2 9 1 5 1002.4 1002.4 0.0
19/09:00pm 21.0 22.4 14.4 66 3.9 CALM 0 6 0 3 1003.0 1003.0 0.0
19/08:30pm 21.1 21.6 14.0 64 4.1 SSW 4 7 2 4 1003.8 1003.8 0.0
19/08:00pm 21.2 20.5 13.1 60 4.6 SSW 9 15 5 8 1004.3 1004.3 0.0
19/07:30pm 21.3 20.2 13.0 59 4.7 SSW 11 19 6 10 1004.6 1004.6 0.0
19/07:00pm 22.5 21.4 13.0 55 5.5 SSW 11 19 6 10 1005.1 1005.1 0.0
19/06:30pm 22.5 21.7 13.0 55 5.4 SSW 9 17 5 9 1005.4 1005.4 0.0
19/06:00pm 22.3 21.5 12.8 55 5.4 SSW 9 17 5 9 1006.0 1006.0 0.0
19/05:30pm 21.6 20.0 12.7 57 5.1 S 13 20 7 11 1006.5 1006.5 0.0
19/05:00pm 21.9 20.6 12.5 55 5.3 SSW 11 20 6 11 1006.8 1006.8 0.0
19/04:30pm 21.6 20.1 11.9 54 5.4 SSW 11 20 6 11 1007.6 1007.6 0.0
19/04:00pm 21.8 20.1 12.4 55 5.3 SSW 13 20 7 11 1008.3 1008.3 0.0
19/03:30pm 21.1 19.3 10.9 52 5.6 SSW 11 22 6 12 1008.8 1008.8 0.0
19/03:00pm 21.0 19.0 10.2 50 5.9 S 11 20 6 11 1009.5 1009.5 0.0
19/02:30pm 21.3 19.5 10.8 51 5.8 SW 11 22 6 12 1009.9 1009.9 0.0
19/02:00pm 20.5 17.8 10.3 52 5.5 SSW 15 26 8 14 1010.3 1010.3 0.0
19/01:30pm 20.3 17.8 9.8 51 5.6 SSW 13 24 7 13 1010.9 1010.9 0.0
19/01:00pm 19.6 17.1 9.8 53 5.2 SW 13 26 7 14 1011.4 1011.4 0.0
19/12:30pm 19.9 17.5 10.0 53 5.3 SSW 13 26 7 14 1011.8 1011.8 0.0
19/12:00pm 19.6 17.4 9.5 52 5.4 SSW 11 19 6 10 1012.2 1012.2 0.0
19/11:30am 19.9 18.0 8.9 49 5.8 S 9 19 5 10 1012.5 1012.5 0.0
19/11:00am 19.7 17.5 7.8 46 6.1 SE 9 20 5 11 1012.8 1012.8 0.0
19/10:30am 18.2 15.6 7.9 51 5.3 SSW 11 20 6 11 1013.2 1013.2 0.0
19/10:00am 17.8 15.6 7.8 52 5.1 S 9 20 5 11 1013.6 1013.6 0.0
19/09:30am 16.8 14.0 6.9 52 4.9 SE 11 19 6 10 1014.0 1014.0 0.0
19/09:00am 16.3 13.2 7.3 55 4.5 SE 13 20 7 11 1014.3 1014.3 0.0
19/08:30am 15.5 12.7 8.5 63 3.5 SE 13 20 7 11 1014.5 1014.5 0.0
19/08:00am 15.0 12.9 8.3 64 3.4 S 9 13 5 7 1014.9 1014.9 0.0
19/07:30am 14.5 13.5 8.9 69 2.8 S 4 11 2 6 1014.7 1014.7 0.0
19/07:00am 12.6 12.7 10.3 86 1.2 CALM 0 0 0 0 1014.7 1014.7 0.0
19/06:30am 11.3 11.2 9.4 88 1.0 CALM 0 4 0 2 1014.4 1014.4 0.0
19/06:00am 11.2 11.1 9.3 88 1.0 CALM 0 0 0 0 1014.3 1014.3 0.0
19/05:30am 11.2 10.9 8.8 85 1.2 CALM 0 0 0 0 1014.6 1014.6 0.0
19/05:00am 11.6 11.5 9.5 87 1.1 CALM 0 0 0 0 1014.5 1014.5 0.0
19/04:30am 11.7 11.5 8.9 83 1.4 CALM 0 0 0 0 1014.7 1014.7 0.0
19/04:00am 12.1 11.8 8.6 79 1.7 CALM 0 0 0 0 1014.9 1014.9 0.0
19/03:30am 12.3 11.9 8.2 76 2.0 CALM 0 0 0 0 1015.0 1015.0 0.0
19/03:00am 13.0 11.8 8.1 72 2.4 S 4 9 2 5 1015.5 1015.5 0.0
19/02:30am 13.2 12.3 7.6 69 2.7 S 2 7 1 4 1015.8 1015.8 0.0
19/02:00am 13.7 11.5 7.7 67 3.0 SSE 9 13 5 7 1016.1 1016.1 0.0
19/01:30am 14.1 12.1 7.2 63 3.4 SE 7 15 4 8 1016.4 1016.4 0.0
19/01:00am 14.3 11.9 6.9 61 3.6 SSE 9 20 5 11 1016.6 1016.6 0.0
19/12:30am 14.5 11.6 6.6 59 3.8 SSE 11 20 6 11 1016.6 1016.6 0.0
19/12:00am 14.8 11.9 6.6 58 4.0 SSE 11 24 6 13 1016.7 1016.7 0.0
 
Date/Time
EDT
Temp
°C
App
Temp
°C
Dew
Point
°C
Rel
Hum
%
Delta-T
°C
Wind Press
QNH
hPa
Press
MSL
hPa
Rain since
9am
mm
Dir  Spd
km/h
Gust
km/h
Spd
kts
Gust
kts
18/11:30pm 15.0 12.0 7.5 61 3.7 SSE 13 22 7 12 1017.1 1017.1 0.0
18/11:00pm 15.2 12.2 7.7 61 3.7 SSE 13 20 7 11 1017.2 1017.2 0.0
18/10:30pm 15.4 12.3 7.4 59 4.0 SSE 13 24 7 13 1017.2 1017.2 0.0
18/10:00pm 15.8 12.9 8.1 60 3.9 SSE 13 26 7 14 1017.2 1017.2 0.0
18/09:30pm 16.2 13.1 7.4 56 4.4 SSE 13 22 7 12 1016.9 1016.9 0.0
18/09:00pm 16.6 12.6 6.7 52 4.9 SSE 17 30 9 16 1016.9 1016.9 0.0
18/08:30pm 17.2 13.5 6.4 49 5.3 SSE 15 28 8 15 1016.8 1016.8 0.0
18/08:00pm 17.9 14.3 6.7 48 5.6 SSE 15 28 8 15 1016.5 1016.5 0.0
18/07:30pm 18.4 14.9 7.2 48 5.6 SSE 15 28 8 15 1016.1 1016.1 0.0
18/07:00pm 18.5 15.1 9.0 54 5.0 S 17 32 9 17 1015.8 1015.8 0.0
18/06:30pm 18.5 14.6 9.3 55 4.8 S 20 35 11 19 1015.9 1015.9 0.0
18/06:00pm 19.0 15.9 8.9 52 5.3 S 15 32 8 17 1015.7 1015.7 0.0
18/05:30pm 18.6 14.6 8.3 51 5.3 S 19 35 10 19 1015.7 1015.7 0.0
18/05:00pm 19.0 15.0 8.9 52 5.3 SSW 20 37 11 20 1015.8 1015.8 0.0
18/04:30pm 19.5 16.3 10.0 54 5.1 S 17 32 9 17 1015.8 1015.8 0.0
18/04:00pm 19.3 15.8 7.1 45 6.2 S 15 32 8 17 1015.8 1015.8 0.0
18/03:30pm 19.2 14.7 7.0 45 6.2 SSW 20 41 11 22 1015.6 1015.6 0.0
18/03:00pm 19.4 15.3 8.7 50 5.6 S 20 37 11 20 1015.6 1015.6 0.0
18/02:30pm 19.3 15.8 8.9 51 5.4 S 17 35 9 19 1015.9 1015.9 0.0
18/02:00pm 19.3 15.3 8.3 49 5.7 S 19 32 10 17 1016.0 1016.0 0.0
18/01:30pm 19.5 15.9 8.5 49 5.7 S 17 30 9 16 1016.2 1016.2 0.0
18/01:00pm 19.4 15.9 8.7 50 5.6 S 17 33 9 18 1015.9 1015.9 0.0
18/12:30pm 19.2 14.9 9.4 53 5.2 SSW 22 39 12 21 1015.6 1015.6 0.0
18/12:00pm 19.0 14.8 11.1 60 4.3 SSW 24 37 13 20 1015.4 1015.4 0.0
18/11:30am 20.0 16.8 10.1 53 5.3 S 17 30 9 16 1015.1 1015.1 0.0

Other Formats:

Comma delimited format used in spreadsheet applications
http://www.bom.gov.au/fwo/IDV60801/IDV60801.95936.axf

JavaScript Object Notation format (JSON) in row-major order
http://www.bom.gov.au/fwo/IDV60801/IDV60801.95936.json